Time;durP1;ratioP1;P1;durP2;ratioP2;P2;SDS_P1;SDS_P2;PMS_P1;PMS_P2;Temp;Humidity;BMP_temperature;BMP_pressure;BME280_temperature;BME280_humidity;BME280_pressure;Samples;Min_cycle;Max_cycle;Signal;HPM_P1;HPM_P2
2023/08/15 00:00:38;;;;;;;5.63;3.60;;;;;;;;;;4997121;28;20201;-66
2023/08/15 00:03:05;;;;;;;5.07;3.45;;;19.30;99.90;;;;;;5020779;28;20210;-66
2023/08/15 00:05:32;;;;;;;4.20;3.47;;;19.30;99.90;;;;;;5008348;28;20205;-67
2023/08/15 00:07:59;;;;;;;10.05;3.30;;;19.30;99.90;;;;;;5021594;28;20957;-66
2023/08/15 00:10:27;;;;;;;5.75;3.70;;;19.30;99.90;;;;;;5036702;28;20565;-66
2023/08/15 00:12:54;;;;;;;6.03;3.55;;;19.30;99.90;;;;;;5034653;28;20219;-67
2023/08/15 00:15:21;;;;;;;6.32;3.50;;;19.30;99.90;;;;;;5019422;28;20909;-66
2023/08/15 00:17:47;;;;;;;4.95;3.67;;;19.40;99.90;;;;;;5013884;28;20208;-66
2023/08/15 00:20:14;;;;;;;12.80;3.60;;;19.40;99.90;;;;;;5021557;28;20200;-66
2023/08/15 00:22:41;;;;;;;10.75;3.70;;;19.40;99.90;;;;;;5012207;28;20765;-66
2023/08/15 00:25:08;;;;;;;4.55;3.55;;;19.50;99.90;;;;;;5034178;28;20205;-66
2023/08/15 00:27:36;;;;;;;4.65;3.42;;;19.40;99.90;;;;;;5030727;28;20197;-66
2023/08/15 00:30:04;;;;;;;5.97;3.38;;;19.50;99.90;;;;;;5018465;28;20213;-66
2023/08/15 00:32:35;;;;;;;7.82;3.50;;;19.50;99.90;;;;;;5011643;28;20209;-66
2023/08/15 00:35:02;;;;;;;8.55;3.53;;;19.50;99.90;;;;;;5012181;28;21317;-66
2023/08/15 00:37:29;;;;;;;5.38;3.83;;;19.50;99.90;;;;;;5020241;28;20201;-66
2023/08/15 00:39:56;;;;;;;6.80;3.65;;;19.50;99.90;;;;;;5008599;28;20228;-66
2023/08/15 00:42:23;;;;;;;3.90;2.92;;;19.50;99.90;;;;;;5031321;28;20205;-66
2023/08/15 00:44:51;;;;;;;8.18;3.53;;;19.50;99.90;;;;;;5025501;28;20693;-66
2023/08/15 00:47:19;;;;;;;6.72;3.72;;;19.50;99.90;;;;;;5000307;28;21116;-67
2023/08/15 00:49:47;;;;;;;6.45;3.80;;;19.50;99.90;;;;;;5027027;28;20574;-66
2023/08/15 00:52:15;;;;;;;6.15;3.90;;;19.60;99.90;;;;;;5016332;28;21727;-66
2023/08/15 00:54:47;;;;;;;7.40;3.90;;;19.50;99.90;;;;;;5017990;28;20201;-66
2023/08/15 00:57:14;;;;;;;6.30;4.03;;;19.50;99.90;;;;;;5027402;28;20436;-66
2023/08/15 00:59:43;;;;;;;3.40;3.10;;;19.50;99.90;;;;;;5028111;28;20228;-66
2023/08/15 01:02:12;;;;;;;9.48;3.85;;;19.50;99.90;;;;;;5017686;28;20663;-66
2023/08/15 01:04:39;;;;;;;4.20;3.28;;;19.50;99.90;;;;;;5004419;28;20209;-66
2023/08/15 01:07:06;;;;;;;6.65;3.90;;;19.50;99.90;;;;;;5020932;28;20532;-66
2023/08/15 01:09:33;;;;;;;3.80;3.40;;;19.60;99.90;;;;;;5003833;28;20212;-66
2023/08/15 01:12:12;;;;;;;10.57;3.70;;;19.60;99.90;;;;;;5024690;28;20233;-66
2023/08/15 01:14:44;;;;;;;4.93;3.53;;;19.60;99.90;;;;;;5035517;28;20197;-66
2023/08/15 01:17:19;;;;;;;9.82;3.80;;;19.60;99.90;;;;;;5024778;28;20224;-66
2023/08/15 01:19:49;;;;;;;6.60;3.83;;;19.60;99.90;;;;;;5006907;28;20532;-66
2023/08/15 01:22:18;;;;;;;11.68;3.72;;;19.60;99.90;;;;;;5035334;28;20652;-66
2023/08/15 01:24:46;;;;;;;10.77;3.72;;;19.60;99.90;;;;;;5006874;28;20207;-66
2023/08/15 01:27:13;;;;;;;7.90;3.33;;;19.60;99.90;;;;;;5042150;28;20211;-66
2023/08/15 01:29:40;;;;;;;7.00;4.05;;;19.50;99.90;;;;;;5026734;28;20234;-66
2023/08/15 01:32:17;;;;;;;10.90;4.30;;;19.60;99.90;;;;;;5025593;28;20224;-66
2023/08/15 01:34:51;;;;;;;5.25;3.40;;;19.90;99.90;;;;;;5006875;28;20205;-66
2023/08/15 01:37:24;;;;;;;8.05;3.72;;;19.50;99.90;;;;;;5035828;28;20197;-66
2023/08/15 01:39:57;;;;;;;8.40;3.38;;;19.50;99.90;;;;;;5003971;28;20511;-66
2023/08/15 01:42:25;;;;;;;5.68;3.50;;;19.50;99.90;;;;;;5035254;28;20192;-66
2023/08/15 01:44:53;;;;;;;8.45;3.97;;;19.50;99.90;;;;;;5026572;28;20196;-66
2023/08/15 01:47:21;;;;;;;6.22;3.58;;;19.40;99.90;;;;;;5025249;28;20219;-65
2023/08/15 01:49:48;;;;;;;6.45;4.10;;;19.40;99.90;;;;;;5032064;28;20487;-66
2023/08/15 01:52:15;;;;;;;6.88;3.95;;;19.40;99.90;;;;;;5011120;28;20208;-66
2023/08/15 01:54:42;;;;;;;4.22;3.45;;;19.40;99.90;;;;;;5027287;28;20208;-65
2023/08/15 01:57:10;;;;;;;4.68;3.88;;;19.40;99.90;;;;;;5026081;28;20224;-66
2023/08/15 01:59:37;;;;;;;5.45;3.83;;;19.40;99.90;;;;;;5036687;28;20736;-65
2023/08/15 02:02:06;;;;;;;5.93;4.25;;;19.40;99.90;;;;;;5027629;28;20400;-66
2023/08/15 02:04:33;;;;;;;8.00;3.90;;;19.30;99.90;;;;;;5027261;28;20193;-66
2023/08/15 02:07:00;;;;;;;5.75;4.28;;;19.30;99.90;;;;;;5005197;28;20900;-66
2023/08/15 02:09:27;;;;;;;5.93;4.40;;;19.30;99.90;;;;;;5026375;28;20564;-66
2023/08/15 02:11:54;;;;;;;8.52;3.88;;;19.30;99.90;;;;;;5024804;28;20306;-66
2023/08/15 02:14:23;;;;;;;6.15;3.85;;;19.20;99.90;;;;;;5039573;28;20266;-66
2023/08/15 02:16:49;;;;;;;4.78;3.70;;;19.30;99.90;;;;;;5035033;28;20575;-66
2023/08/15 02:19:16;;;;;;;6.55;3.88;;;19.30;99.90;;;;;;5029405;28;20231;-65
2023/08/15 02:21:43;;;;;;;8.05;3.95;;;19.20;99.90;;;;;;5002794;28;20211;-66
2023/08/15 02:24:10;;;;;;;8.25;3.88;;;19.30;99.90;;;;;;5038091;28;20201;-66
2023/08/15 02:26:37;;;;;;;6.75;4.00;;;19.20;99.90;;;;;;5022919;28;20268;-66
2023/08/15 02:29:04;;;;;;;8.23;4.00;;;19.20;99.90;;;;;;5025856;28;20412;-66
2023/08/15 02:31:32;;;;;;;8.45;3.45;;;19.30;99.90;;;;;;5031821;28;20206;-66
2023/08/15 02:33:59;;;;;;;5.32;3.88;;;19.30;99.90;;;;;;5023025;28;20201;-66
2023/08/15 02:36:26;;;;;;;9.25;3.80;;;19.30;99.90;;;;;;5030776;28;20197;-66
2023/08/15 02:38:53;;;;;;;6.70;3.80;;;19.30;99.90;;;;;;5010079;28;20285;-66
2023/08/15 02:41:20;;;;;;;12.45;4.20;;;19.30;99.90;;;;;;5022043;28;20201;-66
2023/08/15 02:43:47;;;;;;;6.05;4.15;;;19.30;99.90;;;;;;5020029;28;20862;-66
2023/08/15 02:46:14;;;;;;;5.03;4.07;;;19.30;99.90;;;;;;5018254;28;20200;-66
2023/08/15 02:48:42;;;;;;;10.13;4.13;;;19.40;99.90;;;;;;5011414;28;20974;-66
2023/08/15 02:51:09;;;;;;;6.85;4.18;;;19.40;99.90;;;;;;5016686;28;20201;-66
2023/08/15 02:53:36;;;;;;;8.38;4.93;;;19.40;99.90;;;;;;4996471;28;20251;-66
2023/08/15 02:56:03;;;;;;;7.38;4.22;;;19.40;99.90;;;;;;5028642;28;20201;-66
2023/08/15 02:58:29;;;;;;;4.78;3.97;;;19.40;99.90;;;;;;5008601;28;20205;-66
2023/08/15 03:00:56;;;;;;;5.78;4.43;;;19.50;99.90;;;;;;5034953;28;20225;-66
2023/08/15 03:03:25;;;;;;;5.88;4.22;;;19.40;99.90;;;;;;5031408;28;20672;-66
2023/08/15 03:05:53;;;;;;;9.35;4.50;;;19.40;99.90;;;;;;5011893;28;21202;-66
2023/08/15 03:08:20;;;;;;;6.07;4.07;;;19.40;99.90;;;;;;5008214;28;20224;-66
2023/08/15 03:10:47;;;;;;;5.97;4.40;;;19.40;99.90;;;;;;5029619;28;20204;-66
2023/08/15 03:13:14;;;;;;;4.53;4.13;;;19.40;99.90;;;;;;5023368;28;20325;-66
2023/08/15 03:15:40;;;;;;;9.48;4.45;;;19.40;99.90;;;;;;5009790;28;20202;-66
2023/08/15 03:18:07;;;;;;;6.22;4.43;;;19.50;99.90;;;;;;5031503;28;20410;-66
2023/08/15 03:20:35;;;;;;;8.15;4.93;;;19.50;99.90;;;;;;5014662;28;20219;-66
2023/08/15 03:23:03;;;;;;;4.78;4.13;;;19.20;99.90;;;;;;5001249;28;20883;-66
2023/08/15 03:25:30;;;;;;;9.50;5.03;;;19.40;99.90;;;;;;5042069;28;20209;-66
2023/08/15 03:27:56;;;;;;;5.15;4.22;;;19.50;99.90;;;;;;5013049;28;20232;-66
2023/08/15 03:30:23;;;;;;;5.57;4.45;;;19.50;99.90;;;;;;5024679;28;20792;-66
2023/08/15 03:32:50;;;;;;;7.65;4.35;;;19.40;99.90;;;;;;5025039;28;20221;-66
2023/08/15 03:35:17;;;;;;;7.03;4.35;;;19.30;99.90;;;;;;5020795;28;20710;-66
2023/08/15 03:37:44;;;;;;;6.05;4.38;;;19.50;99.90;;;;;;5012406;28;20588;-66
2023/08/15 03:40:12;;;;;;;6.10;4.30;;;19.40;99.90;;;;;;5024485;28;20263;-66
2023/08/15 03:42:39;;;;;;;7.75;4.07;;;19.40;99.90;;;;;;5023949;28;20224;-66
2023/08/15 03:45:06;;;;;;;6.47;4.60;;;19.40;99.90;;;;;;4999281;28;20642;-66
2023/08/15 03:47:33;;;;;;;5.32;4.05;;;19.30;99.90;;;;;;5034822;28;20771;-66
2023/08/15 03:50:00;;;;;;;5.90;4.30;;;19.20;99.90;;;;;;5020094;28;21453;-66
2023/08/15 03:52:27;;;;;;;8.00;3.85;;;19.20;99.90;;;;;;5039656;28;20216;-66
2023/08/15 03:54:54;;;;;;;5.32;4.82;;;19.20;99.90;;;;;;5007936;28;20721;-66
2023/08/15 03:57:22;;;;;;;10.80;4.55;;;19.30;99.90;;;;;;5037404;28;20233;-66
2023/08/15 03:59:48;;;;;;;5.70;4.32;;;19.30;99.90;;;;;;5019658;28;20228;-66
2023/08/15 04:02:15;;;;;;;6.75;4.55;;;19.30;99.90;;;;;;5020411;28;21218;-66
2023/08/15 04:04:42;;;;;;;4.30;3.85;;;19.20;99.90;;;;;;5033515;28;20200;-66
2023/08/15 04:07:09;;;;;;;5.95;4.15;;;19.10;99.90;;;;;;5019714;28;20406;-66
2023/08/15 04:09:36;;;;;;;8.00;4.38;;;19.20;99.90;;;;;;5041885;28;20209;-66
2023/08/15 04:12:02;;;;;;;10.68;4.63;;;19.20;99.90;;;;;;5016403;28;20398;-66
2023/08/15 04:14:30;;;;;;;5.50;3.90;;;19.20;99.90;;;;;;5032454;28;20716;-66
2023/08/15 04:16:57;;;;;;;5.20;3.92;;;19.20;99.90;;;;;;5024043;28;20205;-66
2023/08/15 04:19:24;;;;;;;5.75;4.20;;;19.10;99.90;;;;;;5038600;28;20193;-66
2023/08/15 04:21:51;;;;;;;11.52;4.35;;;19.10;99.90;;;;;;5023565;28;20733;-66
2023/08/15 04:24:19;;;;;;;6.10;4.88;;;19.20;99.90;;;;;;5032839;28;20200;-66
2023/08/15 04:26:45;;;;;;;6.82;4.82;;;19.20;99.90;;;;;;5008029;28;20445;-66
2023/08/15 04:29:12;;;;;;;6.63;5.30;;;19.20;99.90;;;;;;5027616;28;20228;-66
2023/08/15 04:31:41;;;;;;;9.00;4.85;;;19.20;99.90;;;;;;5017884;28;20204;-66
2023/08/15 04:34:08;;;;;;;8.82;5.05;;;19.10;99.90;;;;;;5033315;28;20492;-66
2023/08/15 04:36:34;;;;;;;9.25;4.50;;;19.20;99.90;;;;;;5015171;28;20569;-66
2023/08/15 04:39:03;;;;;;;8.32;5.03;;;19.20;99.90;;;;;;5020654;28;22032;-66
2023/08/15 04:41:30;;;;;;;8.07;5.28;;;19.20;99.90;;;;;;5004667;28;20225;-66
2023/08/15 04:43:56;;;;;;;7.28;5.45;;;19.30;99.90;;;;;;5021266;28;20207;-66
2023/08/15 04:46:23;;;;;;;9.88;5.50;;;19.30;99.90;;;;;;5026140;28;20194;-66
2023/08/15 04:48:51;;;;;;;8.50;5.13;;;19.40;99.90;;;;;;5035122;28;20197;-66
2023/08/15 04:51:18;;;;;;;10.48;5.50;;;19.20;99.90;;;;;;5019048;28;20207;-66
2023/08/15 04:53:45;;;;;;;8.57;5.28;;;17.60;99.90;;;;;;5035006;28;20189;-66
2023/08/15 04:56:12;;;;;;;9.52;5.75;;;19.40;99.90;;;;;;4996906;28;20909;-66
2023/08/15 04:58:39;;;;;;;10.23;5.85;;;19.40;99.90;;;;;;5031399;28;20228;-66
2023/08/15 05:01:06;;;;;;;9.27;5.72;;;19.80;99.90;;;;;;4996953;28;21017;-66
2023/08/15 05:03:33;;;;;;;8.30;5.35;;;19.50;99.90;;;;;;5037244;28;20223;-66
2023/08/15 05:06:02;;;;;;;11.95;5.53;;;19.40;99.90;;;;;;5022682;28;20204;-67
2023/08/15 05:08:29;;;;;;;7.03;5.43;;;19.40;99.90;;;;;;5020798;28;20204;-67
2023/08/15 05:10:56;;;;;;;8.90;6.10;;;19.50;99.90;;;;;;5018951;28;20201;-66
2023/08/15 05:13:22;;;;;;;8.88;5.50;;;19.60;99.90;;;;;;4999545;28;20232;-66
2023/08/15 05:15:49;;;;;;;9.25;6.00;;;19.50;99.90;;;;;;4992380;28;20205;-67
2023/08/15 05:18:17;;;;;;;9.60;5.93;;;19.50;99.90;;;;;;5034485;28;20255;-66
2023/08/15 05:20:46;;;;;;;8.82;6.28;;;19.50;99.90;;;;;;5029870;28;20573;-66
2023/08/15 05:23:14;;;;;;;9.50;6.35;;;19.60;99.90;;;;;;5028657;28;20213;-67
2023/08/15 05:25:43;;;;;;;9.88;6.43;;;19.60;99.90;;;;;;5033294;28;20189;-67
2023/08/15 05:28:10;;;;;;;7.45;5.97;;;19.60;99.90;;;;;;5002071;28;20204;-67
2023/08/15 05:30:37;;;;;;;6.90;5.40;;;19.70;99.90;;;;;;5008165;28;20940;-67
2023/08/15 05:33:04;;;;;;;8.73;5.60;;;19.70;99.90;;;;;;5003738;28;20508;-67
2023/08/15 05:35:32;;;;;;;7.75;5.47;;;19.70;99.90;;;;;;5042997;28;20220;-67
2023/08/15 05:37:58;;;;;;;10.23;6.05;;;19.80;99.90;;;;;;5019927;28;20451;-67
2023/08/15 05:40:27;;;;;;;7.50;6.60;;;19.80;99.90;;;;;;5037995;28;24683;-67
2023/08/15 05:42:54;;;;;;;7.93;5.82;;;19.50;99.90;;;;;;5002942;28;20709;-68
2023/08/15 05:45:20;;;;;;;9.55;6.88;;;19.90;99.90;;;;;;5033851;28;20690;-67
2023/08/15 05:47:47;;;;;;;8.50;6.28;;;20.00;99.90;;;;;;4997348;28;20728;-67
2023/08/15 05:50:14;;;;;;;10.02;6.32;;;20.00;99.90;;;;;;5046149;28;20226;-67
2023/08/15 05:52:41;;;;;;;9.32;6.57;;;20.00;99.90;;;;;;5040943;28;20200;-67
2023/08/15 05:55:08;;;;;;;7.90;6.65;;;20.00;99.90;;;;;;5040933;28;20237;-67
2023/08/15 05:57:36;;;;;;;9.18;5.82;;;20.00;99.90;;;;;;5035277;28;20225;-67
2023/08/15 06:00:05;;;;;;;9.60;6.70;;;20.10;99.90;;;;;;5033102;28;20633;-68
2023/08/15 06:02:34;;;;;;;16.05;6.50;;;20.00;99.90;;;;;;5034849;28;20533;-68
2023/08/15 06:05:02;;;;;;;6.88;6.10;;;20.10;99.90;;;;;;5020394;28;20263;-68
2023/08/15 06:07:28;;;;;;;7.70;6.10;;;20.10;99.90;;;;;;5044597;28;20227;-68
2023/08/15 06:09:55;;;;;;;8.30;6.57;;;20.10;99.90;;;;;;5029278;28;20396;-68
2023/08/15 06:12:22;;;;;;;7.82;6.18;;;19.90;99.90;;;;;;5047606;28;20204;-68
2023/08/15 06:14:50;;;;;;;15.88;6.18;;;20.20;99.90;;;;;;5016885;28;20402;-68
2023/08/15 06:17:18;;;;;;;10.57;6.43;;;20.10;99.90;;;;;;5038510;28;20225;-68
2023/08/15 06:19:45;;;;;;;9.20;5.93;;;20.20;99.90;;;;;;5031030;28;20816;-68
2023/08/15 06:22:12;;;;;;;9.35;5.95;;;20.20;99.90;;;;;;5047523;28;20200;-68
2023/08/15 06:24:38;;;;;;;10.30;6.20;;;20.20;99.90;;;;;;5032769;28;20208;-68
2023/08/15 06:27:05;;;;;;;9.00;5.80;;;20.30;99.90;;;;;;5046066;28;20205;-68
2023/08/15 06:29:32;;;;;;;9.68;5.57;;;20.20;99.90;;;;;;5017429;28;20682;-68
2023/08/15 06:32:00;;;;;;;7.15;6.10;;;20.20;99.90;;;;;;5031347;28;20782;-68
2023/08/15 06:34:27;;;;;;;9.68;6.28;;;20.30;99.90;;;;;;5045015;28;20780;-68
2023/08/15 06:36:54;;;;;;;8.35;6.32;;;20.30;99.90;;;;;;5028067;28;20197;-68
2023/08/15 06:39:21;;;;;;;7.78;6.28;;;20.30;99.90;;;;;;5032855;28;20566;-68
2023/08/15 06:41:48;;;;;;;10.70;6.35;;;20.30;99.90;;;;;;5042492;28;20229;-68
2023/08/15 06:44:14;;;;;;;10.00;6.80;;;20.30;99.90;;;;;;5021361;28;20212;-68
2023/08/15 06:46:41;;;;;;;7.65;6.43;;;20.30;99.90;;;;;;5035596;28;20213;-68
2023/08/15 06:49:09;;;;;;;9.40;6.68;;;20.40;99.90;;;;;;5044042;28;20247;-67
2023/08/15 06:51:36;;;;;;;9.25;6.35;;;20.30;99.90;;;;;;5032641;28;20198;-67
2023/08/15 06:54:04;;;;;;;8.55;6.50;;;20.30;99.90;;;;;;5045049;28;20255;-68
2023/08/15 06:56:30;;;;;;;11.32;6.43;;;20.40;99.90;;;;;;5035206;28;20247;-67
2023/08/15 06:58:57;;;;;;;13.02;6.60;;;20.40;99.90;;;;;;5041294;28;20200;-68
2023/08/15 07:01:24;;;;;;;9.13;7.22;;;20.40;99.90;;;;;;5019721;28;20225;-67
2023/08/15 07:03:51;;;;;;;8.27;6.60;;;20.40;99.90;;;;;;5024765;28;20811;-68
2023/08/15 07:06:19;;;;;;;10.55;7.05;;;20.30;99.90;;;;;;5033795;28;20578;-68
2023/08/15 07:08:47;;;;;;;15.30;6.88;;;20.30;99.90;;;;;;5043095;28;20229;-68
2023/08/15 07:11:14;;;;;;;8.18;6.35;;;20.40;99.90;;;;;;5035788;28;20319;-68
2023/08/15 07:13:40;;;;;;;8.70;7.30;;;20.50;99.90;;;;;;5041668;28;20193;-68
2023/08/15 07:16:07;;;;;;;11.48;6.60;;;20.50;99.90;;;;;;5011843;28;20752;-68
2023/08/15 07:18:34;;;;;;;10.88;7.60;;;20.50;99.90;;;;;;5031874;28;20212;-68
2023/08/15 07:21:02;;;;;;;12.05;7.00;;;20.60;99.90;;;;;;5046840;28;20417;-68
2023/08/15 07:23:30;;;;;;;7.38;6.20;;;20.60;99.90;;;;;;5033685;28;20354;-68
2023/08/15 07:25:57;;;;;;;11.98;6.22;;;20.60;99.90;;;;;;5038226;28;20282;-68
2023/08/15 07:28:25;;;;;;;7.75;6.95;;;20.60;99.90;;;;;;5045509;28;20207;-67
2023/08/15 07:30:51;;;;;;;7.10;6.07;;;20.60;99.90;;;;;;5014127;28;20453;-68
2023/08/15 07:33:18;;;;;;;7.30;6.47;;;20.60;99.90;;;;;;5044064;28;20827;-68
2023/08/15 07:35:45;;;;;;;8.10;6.45;;;20.70;99.90;;;;;;5030535;28;20577;-68
2023/08/15 07:38:13;;;;;;;15.70;6.50;;;20.60;99.90;;;;;;5033449;28;20541;-68
2023/08/15 07:40:42;;;;;;;9.65;6.72;;;20.60;99.90;;;;;;5035752;28;20242;-68
2023/08/15 07:43:09;;;;;;;10.07;6.50;;;20.60;99.90;;;;;;5044583;28;20624;-68
2023/08/15 07:45:36;;;;;;;10.27;6.20;;;20.70;99.90;;;;;;5029682;28;20776;-68
2023/08/15 07:48:03;;;;;;;8.50;6.28;;;20.50;99.90;;;;;;5031228;28;20204;-67
2023/08/15 07:50:30;;;;;;;8.25;7.05;;;20.70;99.90;;;;;;5027288;28;20198;-68
2023/08/15 07:52:58;;;;;;;9.68;6.40;;;20.80;99.90;;;;;;5027695;28;20614;-68
2023/08/15 07:55:26;;;;;;;10.10;5.88;;;20.80;99.90;;;;;;5043674;28;20219;-68
2023/08/15 07:57:55;;;;;;;12.68;6.93;;;20.80;99.90;;;;;;5032712;28;20231;-68
2023/08/15 08:00:22;;;;;;;10.55;6.68;;;20.80;99.90;;;;;;5042582;28;20248;-68
2023/08/15 08:02:48;;;;;;;14.02;7.28;;;20.70;99.90;;;;;;5012939;28;20397;-68
2023/08/15 08:05:16;;;;;;;10.82;7.53;;;20.80;99.90;;;;;;5042656;28;20198;-68
2023/08/15 08:07:44;;;;;;;7.82;6.45;;;20.90;99.90;;;;;;5020870;28;20590;-68
2023/08/15 08:10:12;;;;;;;9.35;7.28;;;21.00;99.90;;;;;;5041355;28;20197;-68
2023/08/15 08:12:39;;;;;;;11.25;7.63;;;21.00;99.90;;;;;;5032065;28;20248;-68
2023/08/15 08:15:09;;;;;;;14.00;7.97;;;20.90;99.90;;;;;;5045278;28;20207;-68
2023/08/15 08:17:35;;;;;;;10.52;7.88;;;18.80;99.90;;;;;;5018615;28;20561;-68
2023/08/15 08:20:03;;;;;;;10.57;7.53;;;20.90;99.90;;;;;;5041953;28;20197;-68
2023/08/15 08:22:29;;;;;;;16.67;8.50;;;21.00;99.90;;;;;;5031238;28;20315;-68
2023/08/15 08:24:56;;;;;;;10.18;8.27;;;21.00;99.90;;;;;;5026907;28;20432;-68
2023/08/15 08:27:23;;;;;;;10.25;7.95;;;21.10;99.90;;;;;;5033103;28;20212;-68
2023/08/15 08:29:50;;;;;;;12.18;7.72;;;21.00;99.90;;;;;;5044323;28;20907;-68
2023/08/15 08:32:18;;;;;;;13.27;10.05;;;21.20;99.90;;;;;;5037081;28;20205;-68
2023/08/15 08:34:45;;;;;;;15.88;12.75;;;21.10;99.90;;;;;;5012326;28;20209;-68
2023/08/15 08:37:11;;;;;;;16.95;11.85;;;21.10;99.90;;;;;;5030551;28;20201;-68
2023/08/15 08:39:38;;;;;;;13.13;11.82;;;21.10;99.90;;;;;;5028024;28;20196;-68
2023/08/15 08:42:05;;;;;;;14.45;12.88;;;21.10;99.90;;;;;;5034551;28;20611;-68
2023/08/15 08:44:33;;;;;;;17.58;15.52;;;21.10;99.90;;;;;;5039892;28;20193;-68
2023/08/15 08:47:00;;;;;;;19.73;15.57;;;21.20;99.90;;;;;;5039852;28;20256;-68
2023/08/15 08:49:30;;;;;;;21.48;14.68;;;21.10;99.90;;;;;;5014710;28;20205;-68
2023/08/15 08:51:58;;;;;;;18.70;15.00;;;21.10;99.90;;;;;;5039148;28;20192;-68
2023/08/15 08:54:25;;;;;;;17.42;14.95;;;21.30;99.90;;;;;;5019195;28;20200;-68
2023/08/15 08:56:54;;;;;;;16.02;14.00;;;21.10;99.90;;;;;;5044283;28;20824;-68
2023/08/15 08:59:23;;;;;;;14.82;13.27;;;21.10;99.90;;;;;;5033157;28;20208;-68
2023/08/15 09:01:51;;;;;;;18.77;12.38;;;21.10;99.90;;;;;;5042945;28;20238;-68
2023/08/15 09:04:19;;;;;;;14.32;12.73;;;21.20;99.90;;;;;;5019439;28;20220;-68
2023/08/15 09:06:47;;;;;;;14.95;11.93;;;21.20;99.90;;;;;;5040765;28;20201;-68
2023/08/15 09:09:14;;;;;;;16.30;13.20;;;21.30;99.90;;;;;;5018612;28;20208;-68
2023/08/15 09:11:41;;;;;;;14.50;12.05;;;21.40;99.90;;;;;;5044829;28;20201;-68
2023/08/15 09:14:08;;;;;;;15.43;12.18;;;21.40;99.90;;;;;;5036247;28;20205;-68
2023/08/15 09:16:35;;;;;;;13.38;11.98;;;21.50;99.90;;;;;;5041063;28;20197;-68
2023/08/15 09:19:03;;;;;;;15.55;12.70;;;21.50;99.90;;;;;;5018641;28;20427;-68
2023/08/15 09:21:30;;;;;;;14.05;10.70;;;21.60;99.90;;;;;;5042019;28;20233;-68
2023/08/15 09:23:59;;;;;;;14.98;11.05;;;21.60;99.90;;;;;;5025126;28;20406;-68
2023/08/15 09:26:26;;;;;;;13.32;10.75;;;21.70;99.90;;;;;;5030273;28;20205;-68
2023/08/15 09:28:54;;;;;;;10.98;9.48;;;21.80;99.90;;;;;;5041721;28;20201;-68
2023/08/15 09:31:21;;;;;;;13.00;9.35;;;21.70;99.90;;;;;;5035040;28;20278;-68
2023/08/15 09:33:48;;;;;;;11.05;9.20;;;20.80;99.90;;;;;;5013280;28;20248;-68
2023/08/15 09:36:15;;;;;;;14.80;8.95;;;21.70;99.90;;;;;;5042642;28;20207;-68
2023/08/15 09:38:42;;;;;;;9.32;8.40;;;21.70;99.90;;;;;;5029484;28;20205;-68
2023/08/15 09:41:13;;;;;;;12.63;8.60;;;21.80;99.90;;;;;;5027273;28;20248;-68
2023/08/15 09:43:50;;;;;;;8.50;7.35;;;22.50;99.90;;;;;;5043997;28;20205;-68
2023/08/15 09:46:18;;;;;;;12.93;7.40;;;22.00;99.90;;;;;;5031845;28;20674;-68
2023/08/15 09:48:46;;;;;;;11.57;6.88;;;22.10;99.90;;;;;;5037698;28;20670;-68
2023/08/15 09:51:15;;;;;;;11.63;6.40;;;22.10;99.90;;;;;;5017815;28;20213;-68
2023/08/15 09:53:43;;;;;;;13.02;6.47;;;22.10;99.90;;;;;;5032569;28;20212;-68
2023/08/15 09:56:11;;;;;;;7.82;5.75;;;22.20;99.90;;;;;;5027460;28;20237;-68
2023/08/15 09:58:39;;;;;;;6.65;5.15;;;22.30;99.90;;;;;;5040587;28;20199;-68
2023/08/15 10:01:08;;;;;;;9.02;5.03;;;22.40;99.90;;;;;;5037106;28;20205;-68
2023/08/15 10:03:37;;;;;;;11.32;5.03;;;22.40;99.90;;;;;;5042464;28;20286;-68
2023/08/15 10:06:07;;;;;;;8.50;5.15;;;22.50;99.90;;;;;;5012960;28;20968;-68
2023/08/15 10:08:37;;;;;;;11.85;4.57;;;22.60;99.90;;;;;;5041534;28;20238;-68
2023/08/15 10:11:07;;;;;;;8.98;4.63;;;22.60;99.90;;;;;;5022017;28;20445;-68
2023/08/15 10:13:38;;;;;;;6.47;4.10;;;22.60;99.90;;;;;;5041664;28;21030;-67
2023/08/15 10:16:07;;;;;;;7.75;3.70;;;22.50;99.90;;;;;;5032683;28;20205;-67
2023/08/15 10:18:35;;;;;;;5.13;3.30;;;22.60;99.90;;;;;;5042043;28;20971;-67
2023/08/15 10:21:02;;;;;;;7.03;2.65;;;22.60;99.90;;;;;;5013486;28;20479;-67
2023/08/15 10:23:30;;;;;;;6.70;3.40;;;22.50;99.90;;;;;;5043022;28;20200;-67
2023/08/15 10:25:57;;;;;;;6.72;3.30;;;22.60;99.90;;;;;;5020345;28;20978;-67
2023/08/15 10:28:26;;;;;;;7.22;2.63;;;22.60;99.90;;;;;;5047080;28;20193;-67
2023/08/15 10:30:55;;;;;;;6.97;2.25;;;22.60;99.90;;;;;;5034407;28;20569;-67
2023/08/15 10:33:23;;;;;;;4.70;2.40;;;22.70;99.90;;;;;;5043749;28;20202;-67
2023/08/15 10:35:53;;;;;;;2.97;2.13;;;22.70;99.90;;;;;;5012738;28;20609;-67
2023/08/15 10:38:21;;;;;;;4.10;2.20;;;22.80;99.90;;;;;;5046396;28;20208;-67
2023/08/15 10:40:50;;;;;;;4.47;2.35;;;22.70;99.90;;;;;;5025860;28;20209;-67
2023/08/15 10:43:17;;;;;;;5.45;2.13;;;22.70;99.90;;;;;;5030745;28;20605;-68
2023/08/15 10:45:48;;;;;;;4.43;1.88;;;22.70;99.90;;;;;;5036507;28;20206;-66
2023/08/15 10:48:16;;;;;;;3.15;1.80;;;22.60;99.90;;;;;;5045886;28;20200;-67
2023/08/15 10:50:46;;;;;;;3.63;1.80;;;22.80;99.90;;;;;;5041022;28;20572;-67
2023/08/15 10:53:12;;;;;;;2.75;1.60;;;22.80;99.90;;;;;;5021289;28;20255;-67
2023/08/15 10:55:40;;;;;;;3.22;1.90;;;22.90;99.90;;;;;;5037629;28;20217;-67
2023/08/15 10:58:08;;;;;;;8.60;1.85;;;23.00;99.90;;;;;;5028297;28;20241;-67
2023/08/15 11:00:36;;;;;;;4.35;1.67;;;23.10;99.90;;;;;;5043828;28;20188;-67
2023/08/15 11:03:03;;;;;;;7.13;1.95;;;22.90;99.90;;;;;;5023660;28;20232;-67
2023/08/15 11:05:31;;;;;;;2.55;1.55;;;22.90;99.90;;;;;;5040912;28;20232;-67
2023/08/15 11:08:12;;;;;;;4.70;1.90;;;22.90;99.90;;;;;;5014142;28;20225;-67
2023/08/15 11:10:44;;;;;;;2.88;1.67;;;22.90;99.90;;;;;;5007124;28;20224;-66
2023/08/15 11:13:11;;;;;;;3.60;1.90;;;22.90;99.90;;;;;;5023668;28;20464;-67
2023/08/15 11:15:39;;;;;;;3.72;1.63;;;23.00;99.90;;;;;;5037988;28;20391;-66
2023/08/15 11:18:06;;;;;;;2.45;1.63;;;23.00;99.90;;;;;;5031205;28;20203;-66
2023/08/15 11:20:34;;;;;;;2.40;1.73;;;22.90;99.90;;;;;;5044134;28;20215;-67
2023/08/15 11:23:01;;;;;;;3.67;1.60;;;22.90;99.90;;;;;;5040444;28;20224;-66
2023/08/15 11:25:28;;;;;;;3.53;1.70;;;22.90;99.90;;;;;;5013039;28;20394;-67
2023/08/15 11:27:55;;;;;;;3.42;1.88;;;22.90;99.90;;;;;;5035651;28;20211;-67
2023/08/15 11:30:22;;;;;;;2.53;1.90;;;23.10;99.90;;;;;;5027915;28;20396;-67
2023/08/15 11:32:50;;;;;;;3.70;1.60;;;23.10;99.90;;;;;;5040467;28;20226;-66
2023/08/15 11:35:17;;;;;;;3.85;1.90;;;23.20;99.90;;;;;;5035658;28;20217;-67
2023/08/15 11:37:45;;;;;;;6.13;1.77;;;23.30;99.90;;;;;;5047477;28;20212;-67
2023/08/15 11:40:12;;;;;;;5.82;1.58;;;23.40;99.90;;;;;;5006958;28;20678;-67
2023/08/15 11:42:39;;;;;;;3.22;1.55;;;23.40;99.90;;;;;;5046137;28;20216;-67
2023/08/15 11:45:11;;;;;;;4.60;1.73;;;23.40;99.90;;;;;;5015377;28;20206;-67
2023/08/15 11:47:56;;;;;;;2.88;1.85;;;23.40;99.90;;;;;;5041336;28;20201;-67
2023/08/15 11:50:25;;;;;;;3.33;1.95;;;23.40;99.90;;;;;;5030363;28;20406;-67
2023/08/15 11:52:53;;;;;;;2.95;2.00;;;23.50;99.90;;;;;;5029228;28;20996;-67
2023/08/15 11:55:21;;;;;;;2.00;1.52;;;23.10;99.90;;;;;;5002863;28;20390;-67
2023/08/15 11:57:50;;;;;;;5.38;2.13;;;23.60;99.90;;;;;;5035938;28;21002;-66
2023/08/15 12:00:17;;;;;;;3.58;1.60;;;23.50;99.90;;;;;;5015037;28;20914;-67
2023/08/15 12:02:46;;;;;;;3.72;1.73;;;23.50;99.90;;;;;;5046868;28;20225;-66
2023/08/15 12:05:15;;;;;;;3.08;1.95;;;23.60;99.90;;;;;;5033261;28;20563;-67
2023/08/15 12:07:42;;;;;;;4.22;1.52;;;23.80;99.90;;;;;;5047086;28;20576;-66
2023/08/15 12:10:12;;;;;;;3.08;1.65;;;24.00;99.90;;;;;;5014471;28;20209;-67
2023/08/15 12:12:41;;;;;;;5.07;1.75;;;24.00;99.90;;;;;;5027730;28;20212;-67
2023/08/15 12:15:09;;;;;;;6.47;1.77;;;24.00;99.90;;;;;;5028157;28;20220;-67
2023/08/15 12:17:36;;;;;;;2.67;1.55;;;23.70;99.90;;;;;;5026052;28;20206;-67
2023/08/15 12:20:05;;;;;;;5.25;1.95;;;23.70;99.90;;;;;;5042010;28;20205;-67
2023/08/15 12:22:32;;;;;;;2.88;1.45;;;23.80;99.90;;;;;;5008476;28;20242;-66
2023/08/15 12:24:59;;;;;;;4.05;1.58;;;23.80;99.90;;;;;;5007894;28;20504;-66
2023/08/15 12:27:28;;;;;;;3.83;1.45;;;24.00;99.90;;;;;;5027811;28;20208;-67
2023/08/15 12:29:55;;;;;;;1.55;1.30;;;23.50;99.90;;;;;;4999317;28;20706;-67
2023/08/15 12:32:22;;;;;;;2.05;1.58;;;23.50;99.90;;;;;;5018305;28;20225;-66
2023/08/15 12:34:48;;;;;;;5.35;1.77;;;23.50;99.90;;;;;;5006470;28;21030;-67
2023/08/15 12:37:15;;;;;;;1.48;1.27;;;23.50;99.90;;;;;;5023817;28;20205;-66
2023/08/15 12:39:42;;;;;;;2.28;1.50;;;24.20;99.90;;;;;;5013266;28;21283;-66
2023/08/15 12:42:09;;;;;;;4.85;1.50;;;23.50;99.90;;;;;;5013604;28;20260;-66
2023/08/15 12:44:37;;;;;;;2.38;1.67;;;23.40;99.90;;;;;;5022941;28;20202;-66